sensor_id;sensor_type;location;lat;lon;timestamp;temperature;humidity
3310;DHT22;1667;53.238;10.394;2023-01-23T00:01:19;6.50;99.90
3310;DHT22;1667;53.238;10.394;2023-01-23T00:06:18;6.60;99.90
3310;DHT22;1667;53.238;10.394;2023-01-23T00:11:19;6.70;99.90
3310;DHT22;1667;53.238;10.394;2023-01-23T00:16:19;6.70;99.90
3310;DHT22;1667;53.238;10.394;2023-01-23T00:21:19;6.80;99.90
3310;DHT22;1667;53.238;10.394;2023-01-23T00:26:21;6.80;99.90
3310;DHT22;1667;53.238;10.394;2023-01-23T00:31:21;6.80;99.90
3310;DHT22;1667;53.238;10.394;2023-01-23T00:36:21;6.80;99.90
3310;DHT22;1667;53.238;10.394;2023-01-23T00:41:21;6.80;99.90
3310;DHT22;1667;53.238;10.394;2023-01-23T00:46:20;7.10;99.90
3310;DHT22;1667;53.238;10.394;2023-01-23T00:51:19;7.00;99.90
3310;DHT22;1667;53.238;10.394;2023-01-23T00:56:18;6.70;99.90
3310;DHT22;1667;53.238;10.394;2023-01-23T01:01:18;6.70;99.90
3310;DHT22;1667;53.238;10.394;2023-01-23T01:06:19;6.80;99.90
3310;DHT22;1667;53.238;10.394;2023-01-23T01:11:18;6.80;99.90
3310;DHT22;1667;53.238;10.394;2023-01-23T01:16:18;6.80;99.90
3310;DHT22;1667;53.238;10.394;2023-01-23T01:21:17;6.90;99.90
3310;DHT22;1667;53.238;10.394;2023-01-23T01:26:16;6.90;99.90
3310;DHT22;1667;53.238;10.394;2023-01-23T01:31:15;6.70;99.90
3310;DHT22;1667;53.238;10.394;2023-01-23T01:36:17;6.60;99.90
3310;DHT22;1667;53.238;10.394;2023-01-23T01:41:16;6.50;99.90
3310;DHT22;1667;53.238;10.394;2023-01-23T01:46:18;6.50;99.90
3310;DHT22;1667;53.238;10.394;2023-01-23T01:51:23;6.60;99.90
3310;DHT22;1667;53.238;10.394;2023-01-23T01:56:24;6.60;99.90
3310;DHT22;1667;53.238;10.394;2023-01-23T02:01:23;6.70;99.90
3310;DHT22;1667;53.238;10.394;2023-01-23T02:06:23;6.50;99.90
3310;DHT22;1667;53.238;10.394;2023-01-23T02:11:22;6.40;99.90
3310;DHT22;1667;53.238;10.394;2023-01-23T02:16:25;6.40;99.90
3310;DHT22;1667;53.238;10.394;2023-01-23T02:21:27;6.40;99.90
3310;DHT22;1667;53.238;10.394;2023-01-23T02:26:30;6.50;99.90
3310;DHT22;1667;53.238;10.394;2023-01-23T02:31:29;6.80;99.90
3310;DHT22;1667;53.238;10.394;2023-01-23T02:36:30;6.60;99.90
3310;DHT22;1667;53.238;10.394;2023-01-23T02:41:34;6.50;99.90
3310;DHT22;1667;53.238;10.394;2023-01-23T02:46:33;6.60;99.90
3310;DHT22;1667;53.238;10.394;2023-01-23T02:51:32;6.70;99.90
3310;DHT22;1667;53.238;10.394;2023-01-23T02:56:33;6.60;99.90
3310;DHT22;1667;53.238;10.394;2023-01-23T03:01:32;6.50;99.90
3310;DHT22;1667;53.238;10.394;2023-01-23T03:06:34;6.20;99.90
3310;DHT22;1667;53.238;10.394;2023-01-23T03:11:39;6.50;99.90
3310;DHT22;1667;53.238;10.394;2023-01-23T03:16:40;6.20;99.90
3310;DHT22;1667;53.238;10.394;2023-01-23T03:21:40;6.70;99.90
3310;DHT22;1667;53.238;10.394;2023-01-23T03:26:40;6.80;99.90
3310;DHT22;1667;53.238;10.394;2023-01-23T03:31:40;6.80;99.90
3310;DHT22;1667;53.238;10.394;2023-01-23T03:36:39;6.80;99.90
3310;DHT22;1667;53.238;10.394;2023-01-23T03:41:40;6.80;99.90
3310;DHT22;1667;53.238;10.394;2023-01-23T03:46:42;6.90;99.90
3310;DHT22;1667;53.238;10.394;2023-01-23T03:51:41;6.70;99.90
3310;DHT22;1667;53.238;10.394;2023-01-23T03:56:42;6.90;99.90
3310;DHT22;1667;53.238;10.394;2023-01-23T04:01:57;6.90;99.90
3310;DHT22;1667;53.238;10.394;2023-01-23T04:06:56;6.70;99.90
3310;DHT22;1667;53.238;10.394;2023-01-23T04:11:59;6.70;99.90
3310;DHT22;1667;53.238;10.394;2023-01-23T04:16:59;6.70;99.90
3310;DHT22;1667;53.238;10.394;2023-01-23T04:21:58;6.70;99.90
3310;DHT22;1667;53.238;10.394;2023-01-23T04:27:02;6.70;99.90
3310;DHT22;1667;53.238;10.394;2023-01-23T04:32:03;6.80;99.90
3310;DHT22;1667;53.238;10.394;2023-01-23T04:37:07;6.80;99.90
3310;DHT22;1667;53.238;10.394;2023-01-23T04:42:07;6.70;99.90
3310;DHT22;1667;53.238;10.394;2023-01-23T04:47:35;6.60;99.90
3310;DHT22;1667;53.238;10.394;2023-01-23T04:52:38;6.50;99.90
3310;DHT22;1667;53.238;10.394;2023-01-23T04:57:38;6.60;99.90
3310;DHT22;1667;53.238;10.394;2023-01-23T05:02:45;6.70;99.90
3310;DHT22;1667;53.238;10.394;2023-01-23T05:07:45;7.10;99.90
3310;DHT22;1667;53.238;10.394;2023-01-23T05:12:47;6.80;99.90
3310;DHT22;1667;53.238;10.394;2023-01-23T05:17:46;6.80;99.90
3310;DHT22;1667;53.238;10.394;2023-01-23T05:22:45;6.80;99.90
3310;DHT22;1667;53.238;10.394;2023-01-23T05:28:01;6.90;99.90
3310;DHT22;1667;53.238;10.394;2023-01-23T05:33:00;6.90;99.90
3310;DHT22;1667;53.238;10.394;2023-01-23T05:37:59;7.00;99.90
3310;DHT22;1667;53.238;10.394;2023-01-23T05:42:58;6.90;99.90
3310;DHT22;1667;53.238;10.394;2023-01-23T05:48:16;7.00;99.90
3310;DHT22;1667;53.238;10.394;2023-01-23T05:53:15;7.20;99.90
3310;DHT22;1667;53.238;10.394;2023-01-23T05:58:13;6.80;99.90
3310;DHT22;1667;53.238;10.394;2023-01-23T06:03:22;6.80;99.90
3310;DHT22;1667;53.238;10.394;2023-01-23T06:08:35;6.70;99.90
3310;DHT22;1667;53.238;10.394;2023-01-23T06:13:36;6.80;99.90
3310;DHT22;1667;53.238;10.394;2023-01-23T06:18:36;6.80;99.90
3310;DHT22;1667;53.238;10.394;2023-01-23T06:23:34;7.10;99.90
3310;DHT22;1667;53.238;10.394;2023-01-23T06:28:33;6.70;99.90
3310;DHT22;1667;53.238;10.394;2023-01-23T06:33:33;6.60;99.90
3310;DHT22;1667;53.238;10.394;2023-01-23T06:38:39;6.70;99.90
3310;DHT22;1667;53.238;10.394;2023-01-23T06:43:40;6.70;99.90
3310;DHT22;1667;53.238;10.394;2023-01-23T06:48:45;6.80;99.90
3310;DHT22;1667;53.238;10.394;2023-01-23T06:53:46;6.80;99.90
3310;DHT22;1667;53.238;10.394;2023-01-23T06:58:45;6.80;99.90
3310;DHT22;1667;53.238;10.394;2023-01-23T07:03:53;6.80;99.90
3310;DHT22;1667;53.238;10.394;2023-01-23T07:08:54;6.90;99.90
3310;DHT22;1667;53.238;10.394;2023-01-23T07:13:54;6.70;99.90
3310;DHT22;1667;53.238;10.394;2023-01-23T07:18:54;6.70;99.90
3310;DHT22;1667;53.238;10.394;2023-01-23T07:23:56;7.00;99.90
3310;DHT22;1667;53.238;10.394;2023-01-23T07:28:55;6.70;99.90
3310;DHT22;1667;53.238;10.394;2023-01-23T07:33:54;6.70;99.90
3310;DHT22;1667;53.238;10.394;2023-01-23T07:38:52;6.70;99.90
3310;DHT22;1667;53.238;10.394;2023-01-23T07:43:53;6.80;99.90
3310;DHT22;1667;53.238;10.394;2023-01-23T07:48:52;6.70;99.90
3310;DHT22;1667;53.238;10.394;2023-01-23T07:53:52;7.10;99.90
3310;DHT22;1667;53.238;10.394;2023-01-23T07:58:52;7.10;99.90
3310;DHT22;1667;53.238;10.394;2023-01-23T08:03:53;6.80;99.90
3310;DHT22;1667;53.238;10.394;2023-01-23T08:15:47;6.60;99.90
3310;DHT22;1667;53.238;10.394;2023-01-23T08:20:52;6.60;99.90
3310;DHT22;1667;53.238;10.394;2023-01-23T08:25:52;6.80;99.90
3310;DHT22;1667;53.238;10.394;2023-01-23T08:30:52;6.70;99.90
3310;DHT22;1667;53.238;10.394;2023-01-23T08:35:52;6.80;99.90
3310;DHT22;1667;53.238;10.394;2023-01-23T08:40:52;6.80;99.90
3310;DHT22;1667;53.238;10.394;2023-01-23T08:45:54;6.70;99.90
3310;DHT22;1667;53.238;10.394;2023-01-23T08:50:58;6.80;99.90
3310;DHT22;1667;53.238;10.394;2023-01-23T08:55:58;6.70;99.90
3310;DHT22;1667;53.238;10.394;2023-01-23T09:00:59;6.80;99.90
3310;DHT22;1667;53.238;10.394;2023-01-23T09:05:59;7.00;99.90
3310;DHT22;1667;53.238;10.394;2023-01-23T09:10:59;7.00;99.90
3310;DHT22;1667;53.238;10.394;2023-01-23T09:15:59;7.10;99.90
3310;DHT22;1667;53.238;10.394;2023-01-23T09:20:58;7.00;99.90
3310;DHT22;1667;53.238;10.394;2023-01-23T09:26:01;7.00;99.90
3310;DHT22;1667;53.238;10.394;2023-01-23T09:31:05;7.00;99.90
3310;DHT22;1667;53.238;10.394;2023-01-23T09:36:05;7.00;99.90
3310;DHT22;1667;53.238;10.394;2023-01-23T09:41:09;7.10;99.90
3310;DHT22;1667;53.238;10.394;2023-01-23T09:46:17;6.90;99.90
3310;DHT22;1667;53.238;10.394;2023-01-23T09:51:21;6.90;99.90
3310;DHT22;1667;53.238;10.394;2023-01-23T09:56:29;7.00;99.90
3310;DHT22;1667;53.238;10.394;2023-01-23T10:01:30;7.10;99.90
3310;DHT22;1667;53.238;10.394;2023-01-23T10:06:31;7.50;99.90
3310;DHT22;1667;53.238;10.394;2023-01-23T10:11:38;7.30;99.90
3310;DHT22;1667;53.238;10.394;2023-01-23T10:16:59;7.20;99.90
3310;DHT22;1667;53.238;10.394;2023-01-23T10:22:03;7.20;99.90
3310;DHT22;1667;53.238;10.394;2023-01-23T10:27:15;7.30;99.90
3310;DHT22;1667;53.238;10.394;2023-01-23T10:32:24;7.50;99.90
3310;DHT22;1667;53.238;10.394;2023-01-23T10:37:38;7.40;99.90
3310;DHT22;1667;53.238;10.394;2023-01-23T10:42:38;7.40;99.90
3310;DHT22;1667;53.238;10.394;2023-01-23T10:47:44;7.40;99.90
3310;DHT22;1667;53.238;10.394;2023-01-23T10:52:50;7.40;99.90
3310;DHT22;1667;53.238;10.394;2023-01-23T10:57:53;7.50;99.90
3310;DHT22;1667;53.238;10.394;2023-01-23T11:02:53;7.50;99.90
3310;DHT22;1667;53.238;10.394;2023-01-23T11:07:53;7.40;99.90
3310;DHT22;1667;53.238;10.394;2023-01-23T11:12:53;7.50;99.90
3310;DHT22;1667;53.238;10.394;2023-01-23T11:17:54;7.30;99.90
3310;DHT22;1667;53.238;10.394;2023-01-23T11:23:02;7.40;99.90
3310;DHT22;1667;53.238;10.394;2023-01-23T11:28:11;7.80;99.90
3310;DHT22;1667;53.238;10.394;2023-01-23T11:33:21;7.70;99.90
3310;DHT22;1667;53.238;10.394;2023-01-23T11:38:25;8.00;99.90
3310;DHT22;1667;53.238;10.394;2023-01-23T11:43:27;7.80;99.90
3310;DHT22;1667;53.238;10.394;2023-01-23T11:54:08;7.70;99.90
3310;DHT22;1667;53.238;10.394;2023-01-23T11:59:23;7.80;99.90
3310;DHT22;1667;53.238;10.394;2023-01-23T12:04:38;7.70;99.90
3310;DHT22;1667;53.238;10.394;2023-01-23T12:09:46;7.80;99.90
3310;DHT22;1667;53.238;10.394;2023-01-23T12:14:56;7.90;99.90
3310;DHT22;1667;53.238;10.394;2023-01-23T12:20:09;8.10;99.90
3310;DHT22;1667;53.238;10.394;2023-01-23T12:25:22;7.90;99.90
3310;DHT22;1667;53.238;10.394;2023-01-23T12:30:47;8.00;99.90
3310;DHT22;1667;53.238;10.394;2023-01-23T12:35:55;8.00;99.90
3310;DHT22;1667;53.238;10.394;2023-01-23T12:41:08;7.90;99.90
3310;DHT22;1667;53.238;10.394;2023-01-23T12:46:13;8.20;99.90
3310;DHT22;1667;53.238;10.394;2023-01-23T12:51:19;8.00;99.90
3310;DHT22;1667;53.238;10.394;2023-01-23T12:56:22;8.00;99.90
3310;DHT22;1667;53.238;10.394;2023-01-23T13:01:43;8.30;99.90
3310;DHT22;1667;53.238;10.394;2023-01-23T13:12:13;8.00;99.90
3310;DHT22;1667;53.238;10.394;2023-01-23T13:17:36;7.90;99.90
3310;DHT22;1667;53.238;10.394;2023-01-23T13:22:36;8.30;99.90
3310;DHT22;1667;53.238;10.394;2023-01-23T13:27:53;8.40;99.90
3310;DHT22;1667;53.238;10.394;2023-01-23T13:32:56;8.10;99.90
3310;DHT22;1667;53.238;10.394;2023-01-23T13:37:59;8.10;99.90
3310;DHT22;1667;53.238;10.394;2023-01-23T13:42:57;8.20;99.90
3310;DHT22;1667;53.238;10.394;2023-01-23T13:48:21;7.90;99.90
3310;DHT22;1667;53.238;10.394;2023-01-23T13:53:58;7.90;99.90
3310;DHT22;1667;53.238;10.394;2023-01-23T13:59:30;7.90;99.90
3310;DHT22;1667;53.238;10.394;2023-01-23T14:04:54;7.80;99.90
3310;DHT22;1667;53.238;10.394;2023-01-23T14:10:29;7.90;99.90
3310;DHT22;1667;53.238;10.394;2023-01-23T14:15:47;7.60;99.90
3310;DHT22;1667;53.238;10.394;2023-01-23T14:21:20;7.70;99.90
3310;DHT22;1667;53.238;10.394;2023-01-23T14:26:26;7.80;99.90
3310;DHT22;1667;53.238;10.394;2023-01-23T14:31:26;7.70;99.90
3310;DHT22;1667;53.238;10.394;2023-01-23T14:36:26;7.70;99.90
3310;DHT22;1667;53.238;10.394;2023-01-23T14:41:30;7.60;99.90
3310;DHT22;1667;53.238;10.394;2023-01-23T14:46:34;7.50;99.90
3310;DHT22;1667;53.238;10.394;2023-01-23T14:51:34;7.50;99.90
3310;DHT22;1667;53.238;10.394;2023-01-23T14:56:36;7.50;99.90
3310;DHT22;1667;53.238;10.394;2023-01-23T15:01:36;7.60;99.90
3310;DHT22;1667;53.238;10.394;2023-01-23T15:06:35;7.60;99.90
3310;DHT22;1667;53.238;10.394;2023-01-23T15:11:35;8.00;99.90
3310;DHT22;1667;53.238;10.394;2023-01-23T15:16:34;7.60;99.90
3310;DHT22;1667;53.238;10.394;2023-01-23T15:21:36;8.00;99.90
3310;DHT22;1667;53.238;10.394;2023-01-23T15:26:39;7.70;99.90
3310;DHT22;1667;53.238;10.394;2023-01-23T15:31:41;7.70;99.90
3310;DHT22;1667;53.238;10.394;2023-01-23T15:36:45;7.70;99.90
3310;DHT22;1667;53.238;10.394;2023-01-23T15:41:47;7.70;99.90
3310;DHT22;1667;53.238;10.394;2023-01-23T15:46:47;7.70;99.90
3310;DHT22;1667;53.238;10.394;2023-01-23T15:51:51;7.60;99.90
3310;DHT22;1667;53.238;10.394;2023-01-23T15:56:50;7.70;99.90
3310;DHT22;1667;53.238;10.394;2023-01-23T16:02:03;7.70;99.90
3310;DHT22;1667;53.238;10.394;2023-01-23T16:07:05;7.80;99.90
3310;DHT22;1667;53.238;10.394;2023-01-23T16:12:13;7.90;99.90
3310;DHT22;1667;53.238;10.394;2023-01-23T16:17:13;8.00;99.90
3310;DHT22;1667;53.238;10.394;2023-01-23T16:22:17;7.90;99.90
3310;DHT22;1667;53.238;10.394;2023-01-23T16:27:21;7.90;99.90
3310;DHT22;1667;53.238;10.394;2023-01-23T16:32:24;7.90;99.90
3310;DHT22;1667;53.238;10.394;2023-01-23T16:37:23;7.90;99.90
3310;DHT22;1667;53.238;10.394;2023-01-23T16:42:23;7.90;99.90
3310;DHT22;1667;53.238;10.394;2023-01-23T16:47:23;8.10;99.90
3310;DHT22;1667;53.238;10.394;2023-01-23T16:52:23;7.80;99.90
3310;DHT22;1667;53.238;10.394;2023-01-23T16:57:23;7.80;99.90
3310;DHT22;1667;53.238;10.394;2023-01-23T17:02:27;8.00;99.90
3310;DHT22;1667;53.238;10.394;2023-01-23T17:07:26;7.70;99.90
3310;DHT22;1667;53.238;10.394;2023-01-23T17:12:29;7.70;99.90
3310;DHT22;1667;53.238;10.394;2023-01-23T17:17:31;7.70;99.90
3310;DHT22;1667;53.238;10.394;2023-01-23T17:22:39;8.00;99.90
3310;DHT22;1667;53.238;10.394;2023-01-23T17:27:40;7.70;99.90
3310;DHT22;1667;53.238;10.394;2023-01-23T17:32:45;7.70;99.90
3310;DHT22;1667;53.238;10.394;2023-01-23T17:37:44;7.70;99.90
3310;DHT22;1667;53.238;10.394;2023-01-23T17:42:44;7.70;99.90
3310;DHT22;1667;53.238;10.394;2023-01-23T17:47:46;8.00;99.90
3310;DHT22;1667;53.238;10.394;2023-01-23T17:52:45;7.60;99.90
3310;DHT22;1667;53.238;10.394;2023-01-23T17:57:45;7.60;99.90
3310;DHT22;1667;53.238;10.394;2023-01-23T18:02:44;7.70;99.90
3310;DHT22;1667;53.238;10.394;2023-01-23T18:07:43;7.70;99.90
3310;DHT22;1667;53.238;10.394;2023-01-23T18:12:56;7.70;99.90
3310;DHT22;1667;53.238;10.394;2023-01-23T18:18:11;7.60;99.90
3310;DHT22;1667;53.238;10.394;2023-01-23T18:23:13;7.60;99.90
3310;DHT22;1667;53.238;10.394;2023-01-23T18:28:17;7.60;99.90
3310;DHT22;1667;53.238;10.394;2023-01-23T18:33:44;7.70;99.90
3310;DHT22;1667;53.238;10.394;2023-01-23T18:44:15;7.70;99.90
3310;DHT22;1667;53.238;10.394;2023-01-23T18:49:16;7.80;99.90
3310;DHT22;1667;53.238;10.394;2023-01-23T18:54:33;7.50;99.90
3310;DHT22;1667;53.238;10.394;2023-01-23T18:59:41;7.60;99.90
3310;DHT22;1667;53.238;10.394;2023-01-23T19:04:49;7.80;99.90
3310;DHT22;1667;53.238;10.394;2023-01-23T19:09:49;7.70;99.90
3310;DHT22;1667;53.238;10.394;2023-01-23T19:20:27;7.70;99.90
3310;DHT22;1667;53.238;10.394;2023-01-23T19:25:29;7.50;99.90
3310;DHT22;1667;53.238;10.394;2023-01-23T19:30:30;7.60;99.90
3310;DHT22;1667;53.238;10.394;2023-01-23T19:35:28;7.70;99.90
3310;DHT22;1667;53.238;10.394;2023-01-23T19:40:29;7.70;99.90
3310;DHT22;1667;53.238;10.394;2023-01-23T19:45:29;7.70;99.90
3310;DHT22;1667;53.238;10.394;2023-01-23T19:50:28;7.70;99.90
3310;DHT22;1667;53.238;10.394;2023-01-23T19:55:28;7.70;99.90
3310;DHT22;1667;53.238;10.394;2023-01-23T20:00:30;7.70;99.90
3310;DHT22;1667;53.238;10.394;2023-01-23T20:05:29;7.70;99.90
3310;DHT22;1667;53.238;10.394;2023-01-23T20:10:27;7.70;99.90
3310;DHT22;1667;53.238;10.394;2023-01-23T20:15:25;7.70;99.90
3310;DHT22;1667;53.238;10.394;2023-01-23T20:20:26;7.70;99.90
3310;DHT22;1667;53.238;10.394;2023-01-23T20:25:25;8.00;99.90
3310;DHT22;1667;53.238;10.394;2023-01-23T20:30:23;7.70;99.90
3310;DHT22;1667;53.238;10.394;2023-01-23T20:35:21;7.70;99.90
3310;DHT22;1667;53.238;10.394;2023-01-23T20:40:22;7.70;99.90
3310;DHT22;1667;53.238;10.394;2023-01-23T20:45:21;8.00;99.90
3310;DHT22;1667;53.238;10.394;2023-01-23T20:50:20;7.70;99.90
3310;DHT22;1667;53.238;10.394;2023-01-23T20:55:19;7.80;99.90
3310;DHT22;1667;53.238;10.394;2023-01-23T21:00:20;7.80;99.90
3310;DHT22;1667;53.238;10.394;2023-01-23T21:05:18;7.80;99.90
3310;DHT22;1667;53.238;10.394;2023-01-23T21:10:17;7.80;99.90
3310;DHT22;1667;53.238;10.394;2023-01-23T21:15:16;7.80;99.90
3310;DHT22;1667;53.238;10.394;2023-01-23T21:20:17;7.80;99.90
3310;DHT22;1667;53.238;10.394;2023-01-23T21:25:15;7.80;99.90
3310;DHT22;1667;53.238;10.394;2023-01-23T21:30:14;7.80;99.90
3310;DHT22;1667;53.238;10.394;2023-01-23T21:35:13;7.80;99.90
3310;DHT22;1667;53.238;10.394;2023-01-23T21:40:13;7.80;99.90
3310;DHT22;1667;53.238;10.394;2023-01-23T21:45:12;7.80;99.90
3310;DHT22;1667;53.238;10.394;2023-01-23T21:50:11;7.80;99.90
3310;DHT22;1667;53.238;10.394;2023-01-23T21:55:15;7.80;99.90
3310;DHT22;1667;53.238;10.394;2023-01-23T22:00:15;7.80;99.90
3310;DHT22;1667;53.238;10.394;2023-01-23T22:05:31;7.80;99.90
3310;DHT22;1667;53.238;10.394;2023-01-23T22:10:32;7.80;99.90
3310;DHT22;1667;53.238;10.394;2023-01-23T22:15:31;8.10;99.90
3310;DHT22;1667;53.238;10.394;2023-01-23T22:20:29;7.80;99.90
3310;DHT22;1667;53.238;10.394;2023-01-23T22:25:28;7.80;99.90
3310;DHT22;1667;53.238;10.394;2023-01-23T22:30:28;7.80;99.90
3310;DHT22;1667;53.238;10.394;2023-01-23T22:35:26;8.20;99.90
3310;DHT22;1667;53.238;10.394;2023-01-23T22:40:25;7.80;99.90
3310;DHT22;1667;53.238;10.394;2023-01-23T22:45:23;7.90;99.90
3310;DHT22;1667;53.238;10.394;2023-01-23T22:50:23;7.80;99.90
3310;DHT22;1667;53.238;10.394;2023-01-23T22:55:23;7.80;99.90
3310;DHT22;1667;53.238;10.394;2023-01-23T23:00:22;7.80;99.90
3310;DHT22;1667;53.238;10.394;2023-01-23T23:05:20;7.80;99.90
3310;DHT22;1667;53.238;10.394;2023-01-23T23:10:20;7.80;99.90
3310;DHT22;1667;53.238;10.394;2023-01-23T23:15:19;8.00;99.90
3310;DHT22;1667;53.238;10.394;2023-01-23T23:20:18;7.80;99.90
3310;DHT22;1667;53.238;10.394;2023-01-23T23:25:17;7.70;99.90
3310;DHT22;1667;53.238;10.394;2023-01-23T23:30:17;7.70;99.90
3310;DHT22;1667;53.238;10.394;2023-01-23T23:35:16;7.70;99.90
3310;DHT22;1667;53.238;10.394;2023-01-23T23:40:15;7.70;99.90
3310;DHT22;1667;53.238;10.394;2023-01-23T23:45:16;7.70;99.90
3310;DHT22;1667;53.238;10.394;2023-01-23T23:50:16;7.70;99.90
3310;DHT22;1667;53.238;10.394;2023-01-23T23:55:15;7.70;99.90
